createdAt,value
2022-10-09T00:01:11.148Z,12.66
2022-10-09T00:03:41.268Z,12.63
2022-10-09T00:06:12.434Z,12.62
2022-10-09T00:08:40.953Z,12.58
2022-10-09T00:11:10.301Z,12.54
2022-10-09T00:13:38.611Z,12.54
2022-10-09T00:16:08.254Z,12.52
2022-10-09T00:18:37.156Z,12.49
2022-10-09T00:21:05.485Z,12.44
2022-10-09T00:23:34.484Z,12.39
2022-10-09T00:26:03.326Z,12.35
2022-10-09T00:28:36.498Z,12.31
2022-10-09T00:31:06.479Z,12.29
2022-10-09T00:33:34.337Z,12.33
2022-10-09T00:36:04.117Z,12.33
2022-10-09T00:38:31.859Z,12.31
2022-10-09T00:41:01.059Z,12.29
2022-10-09T00:43:41.938Z,12.31
2022-10-09T00:46:19.962Z,12.33
2022-10-09T00:48:52.551Z,12.33
2022-10-09T00:51:20.497Z,12.29
2022-10-09T00:53:48.236Z,12.23
2022-10-09T00:56:17.404Z,12.27
2022-10-09T00:58:45.420Z,12.32
2022-10-09T01:01:13.202Z,12.34
2022-10-09T01:03:42.242Z,12.28
2022-10-09T01:06:18.344Z,12.16
2022-10-09T01:08:51.717Z,12.15
2022-10-09T01:11:35.485Z,12.18
2022-10-09T01:14:11.274Z,12.05
2022-10-09T01:16:45.776Z,12.06
2022-10-09T01:19:23.702Z,12.07
2022-10-09T01:22:03.198Z,12.06
2022-10-09T01:24:37.846Z,12.05
2022-10-09T01:27:16.276Z,12.06
2022-10-09T01:29:47.289Z,12.05
2022-10-09T01:32:19.762Z,12.00
2022-10-09T01:34:48.931Z,11.99
2022-10-09T01:37:18.763Z,11.99
2022-10-09T01:39:47.737Z,12.06
2022-10-09T01:42:17.682Z,12.13
2022-10-09T01:44:45.399Z,12.15
2022-10-09T01:47:16.743Z,12.23
2022-10-09T01:49:52.509Z,12.21
2022-10-09T01:52:34.939Z,12.15
2022-10-09T01:55:19.402Z,12.10
2022-10-09T01:57:53.465Z,12.07
2022-10-09T02:00:22.129Z,12.04
2022-10-09T02:02:51.442Z,11.99
2022-10-09T02:05:22.405Z,12.01
2022-10-09T02:07:50.248Z,12.00
2022-10-09T02:10:19.463Z,11.98
2022-10-09T02:12:54.162Z,12.09
2022-10-09T02:15:24.840Z,12.13
2022-10-09T02:17:55.467Z,12.15
2022-10-09T02:20:28.818Z,12.07
2022-10-09T02:22:59.043Z,11.97
2022-10-09T02:25:26.886Z,11.98
2022-10-09T02:27:56.618Z,11.96
2022-10-09T02:30:28.117Z,11.93
2022-10-09T02:32:55.799Z,11.94
2022-10-09T02:35:23.501Z,11.91
2022-10-09T02:37:51.147Z,11.91
2022-10-09T02:40:18.734Z,11.86
2022-10-09T02:42:46.569Z,11.84
2022-10-09T02:45:15.919Z,11.84
2022-10-09T02:47:43.516Z,11.85
2022-10-09T02:50:11.264Z,11.86
2022-10-09T02:52:38.885Z,11.82
2022-10-09T02:55:06.909Z,11.82
2022-10-09T02:57:34.454Z,11.79
2022-10-09T03:00:02.041Z,11.80
2022-10-09T03:02:31.065Z,11.81
2022-10-09T03:04:59.018Z,11.80
2022-10-09T03:07:26.847Z,11.80
2022-10-09T03:09:54.784Z,11.76
2022-10-09T03:12:22.371Z,11.74
2022-10-09T03:14:49.963Z,11.73
2022-10-09T03:17:17.554Z,11.66
2022-10-09T03:19:46.540Z,11.64
2022-10-09T03:22:14.164Z,11.69
2022-10-09T03:24:41.815Z,11.68
2022-10-09T03:27:09.555Z,11.68
2022-10-09T03:29:37.183Z,11.64
2022-10-09T03:32:04.927Z,11.63
2022-10-09T03:34:32.508Z,11.64
2022-10-09T03:37:01.516Z,11.72
2022-10-09T03:39:29.136Z,11.69
2022-10-09T03:41:56.813Z,11.72
2022-10-09T03:44:24.553Z,11.73
2022-10-09T03:46:52.617Z,11.65
2022-10-09T03:49:20.334Z,11.60
2022-10-09T03:51:47.950Z,11.61
2022-10-09T03:54:16.848Z,11.64
2022-10-09T03:56:44.402Z,11.64
2022-10-09T03:59:12.241Z,11.63
2022-10-09T04:01:40.738Z,11.62
2022-10-09T04:04:08.279Z,11.61
2022-10-09T04:06:35.915Z,11.67
2022-10-09T04:09:03.599Z,11.73
2022-10-09T04:11:32.517Z,11.76
2022-10-09T04:14:00.699Z,11.72
2022-10-09T04:16:28.518Z,11.65
2022-10-09T04:18:56.286Z,11.52
2022-10-09T04:21:23.952Z,11.47
2022-10-09T04:23:52.270Z,11.47
2022-10-09T04:26:19.914Z,11.54
2022-10-09T04:28:48.967Z,11.51
2022-10-09T04:31:16.669Z,11.51
2022-10-09T04:33:44.249Z,11.55
2022-10-09T04:36:12.423Z,11.52
2022-10-09T04:38:40.043Z,11.57
2022-10-09T04:41:08.601Z,11.57
2022-10-09T04:43:36.760Z,11.54
2022-10-09T04:46:11.405Z,11.47
2022-10-09T04:48:39.962Z,11.36
2022-10-09T04:51:08.573Z,11.38
2022-10-09T04:53:37.461Z,11.42
2022-10-09T04:56:07.499Z,11.36
2022-10-09T04:58:36.415Z,11.37
2022-10-09T05:01:08.650Z,11.38
2022-10-09T05:03:36.422Z,11.35
2022-10-09T05:06:05.468Z,11.29
2022-10-09T05:08:33.657Z,11.29
2022-10-09T05:11:01.821Z,11.33
2022-10-09T05:13:30.911Z,11.29
2022-10-09T05:16:02.796Z,11.31
2022-10-09T05:18:31.969Z,11.31
2022-10-09T05:20:59.564Z,11.38
2022-10-09T05:23:27.163Z,11.36
2022-10-09T05:25:56.106Z,11.29
2022-10-09T05:28:23.958Z,11.22
2022-10-09T05:30:52.153Z,11.27
2022-10-09T05:33:19.885Z,11.27
2022-10-09T05:35:56.156Z,11.34
2022-10-09T05:38:25.295Z,11.23
2022-10-09T05:40:53.702Z,11.16
2022-10-09T05:43:21.696Z,11.07
2022-10-09T05:45:49.355Z,11.05
2022-10-09T05:48:17.115Z,11.04
2022-10-09T05:50:44.878Z,10.97
2022-10-09T05:53:14.087Z,10.99
2022-10-09T05:55:41.782Z,10.93
2022-10-09T05:58:09.397Z,10.92
2022-10-09T06:00:36.964Z,10.93
2022-10-09T06:03:04.902Z,11.03
2022-10-09T06:05:32.502Z,11.01
2022-10-09T06:08:00.083Z,11.04
2022-10-09T06:10:32.255Z,11.07
2022-10-09T06:13:00.292Z,11.10
2022-10-09T06:15:28.074Z,11.10
2022-10-09T06:17:55.752Z,10.90
2022-10-09T06:20:23.409Z,11.07
2022-10-09T06:22:52.056Z,11.10
2022-10-09T06:25:19.642Z,11.08
2022-10-09T06:27:48.575Z,11.12
2022-10-09T06:30:16.197Z,11.24
2022-10-09T06:32:43.813Z,11.22
2022-10-09T06:35:11.443Z,11.27
2022-10-09T06:37:39.009Z,11.33
2022-10-09T06:40:07.257Z,11.39
2022-10-09T06:42:34.895Z,11.44
2022-10-09T06:45:03.939Z,11.45
2022-10-09T06:47:31.529Z,11.44
2022-10-09T06:49:59.118Z,11.51
2022-10-09T06:52:26.656Z,11.60
2022-10-09T06:54:54.240Z,11.58
2022-10-09T06:57:21.948Z,11.56
2022-10-09T06:59:50.109Z,11.56
2022-10-09T07:02:19.232Z,11.61
2022-10-09T07:04:48.141Z,11.63
2022-10-09T07:07:15.730Z,11.55
2022-10-09T07:09:43.335Z,11.52
2022-10-09T07:12:10.955Z,11.60
2022-10-09T07:14:38.569Z,11.58
2022-10-09T07:17:06.738Z,11.55
2022-10-09T07:19:35.746Z,11.59
2022-10-09T07:22:03.323Z,11.61
2022-10-09T07:24:30.876Z,11.61
2022-10-09T07:26:58.491Z,11.70
2022-10-09T07:29:26.063Z,11.73
2022-10-09T07:31:53.653Z,11.84
2022-10-09T07:34:21.293Z,11.91
2022-10-09T07:36:50.287Z,11.97
2022-10-09T07:39:19.497Z,12.13
2022-10-09T07:41:47.723Z,12.20
2022-10-09T07:44:15.395Z,12.29
2022-10-09T07:46:43.017Z,12.35
2022-10-09T07:49:10.752Z,12.41
2022-10-09T07:51:38.427Z,12.50
2022-10-09T07:54:07.404Z,12.54
2022-10-09T07:56:37.863Z,12.58
2022-10-09T07:59:07.583Z,12.64
2022-10-09T08:01:36.519Z,12.70
2022-10-09T08:04:05.192Z,12.75
2022-10-09T08:06:33.461Z,12.79
2022-10-09T08:09:02.720Z,12.85
2022-10-09T08:11:31.859Z,12.88
2022-10-09T08:14:00.215Z,12.94
2022-10-09T08:16:28.897Z,12.99
2022-10-09T08:18:58.710Z,13.07
2022-10-09T08:21:27.918Z,13.16
2022-10-09T08:23:57.351Z,13.18
2022-10-09T08:26:25.965Z,13.24
2022-10-09T08:28:57.310Z,13.36
2022-10-09T08:31:25.806Z,13.45
2022-10-09T08:33:54.683Z,13.58
2022-10-09T08:36:22.924Z,13.73
2022-10-09T08:38:51.133Z,14.05
2022-10-09T08:41:28.544Z,14.11
2022-10-09T08:44:03.576Z,14.24
2022-10-09T08:46:35.972Z,14.66
2022-10-09T08:49:06.171Z,15.39
2022-10-09T08:51:39.051Z,17.43
2022-10-09T08:54:17.553Z,20.90
2022-10-09T08:56:45.883Z,22.04
2022-10-09T08:59:15.013Z,23.31
2022-10-09T09:01:49.308Z,25.30
2022-10-09T09:04:32.832Z,25.58
2022-10-09T09:07:12.326Z,24.10
2022-10-09T09:09:53.108Z,22.51
2022-10-09T09:12:28.340Z,21.15
2022-10-09T09:15:14.160Z,20.07
2022-10-09T09:17:47.538Z,19.18
2022-10-09T09:20:23.258Z,18.71
2022-10-09T09:22:51.959Z,18.34
2022-10-09T09:25:22.889Z,18.06
2022-10-09T09:27:52.694Z,17.86
2022-10-09T09:30:25.626Z,17.78
2022-10-09T09:33:01.795Z,17.73
2022-10-09T09:35:37.078Z,17.88
2022-10-09T09:38:04.824Z,18.11
2022-10-09T09:40:37.753Z,18.39
2022-10-09T09:43:14.716Z,18.92
2022-10-09T09:45:44.809Z,19.33
2022-10-09T09:48:17.129Z,19.28
2022-10-09T09:50:53.084Z,18.91
2022-10-09T09:53:36.134Z,18.47
2022-10-09T09:56:04.207Z,18.15
2022-10-09T09:58:36.329Z,17.83
2022-10-09T10:01:07.870Z,17.61
2022-10-09T10:03:36.952Z,17.47
2022-10-09T10:06:05.388Z,17.35
2022-10-09T10:08:35.196Z,17.40
2022-10-09T10:11:06.416Z,17.47
2022-10-09T10:13:37.985Z,17.46
2022-10-09T10:16:08.976Z,17.39
2022-10-09T10:18:41.529Z,17.36
2022-10-09T10:21:13.555Z,17.33
2022-10-09T10:23:45.521Z,17.34
2022-10-09T10:26:23.608Z,17.42
2022-10-09T10:28:55.733Z,17.38
2022-10-09T10:31:36.552Z,17.45
2022-10-09T10:34:09.909Z,18.94
2022-10-09T10:36:37.580Z,19.60
2022-10-09T10:39:13.876Z,19.42
2022-10-09T10:41:46.376Z,19.01
2022-10-09T10:44:22.834Z,18.79
2022-10-09T10:46:56.369Z,18.68
2022-10-09T10:49:24.396Z,18.49
2022-10-09T10:52:04.548Z,18.35
2022-10-09T10:54:38.712Z,18.32
2022-10-09T10:57:15.787Z,18.43
2022-10-09T10:59:53.370Z,18.35
2022-10-09T11:02:54.497Z,18.35
2022-10-09T11:05:47.653Z,18.54
2022-10-09T11:08:34.564Z,18.89
2022-10-09T11:11:07.610Z,19.63
2022-10-09T11:13:45.935Z,22.61
2022-10-09T11:16:29.917Z,25.77
2022-10-09T11:19:14.495Z,27.62
2022-10-09T11:21:52.948Z,28.78
2022-10-09T11:24:37.862Z,29.43
2022-10-09T11:27:14.586Z,28.72
2022-10-09T11:29:47.493Z,27.59
2022-10-09T11:32:20.869Z,26.67
2022-10-09T11:34:56.719Z,25.54
2022-10-09T11:37:28.485Z,25.01
2022-10-09T11:39:57.435Z,24.69
2022-10-09T11:42:27.208Z,24.85
2022-10-09T11:45:07.527Z,24.76
2022-10-09T11:47:46.095Z,25.54
2022-10-09T11:50:27.911Z,25.11
2022-10-09T11:53:00.848Z,24.45
2022-10-09T11:55:31.273Z,23.52
2022-10-09T11:58:14.908Z,22.62
2022-10-09T12:00:43.894Z,21.89
2022-10-09T12:03:26.370Z,21.47
2022-10-09T12:06:04.374Z,21.58
2022-10-09T12:08:32.311Z,21.91
2022-10-09T12:11:10.520Z,22.06
2022-10-09T12:13:46.039Z,22.31
2022-10-09T12:16:46.478Z,22.14
2022-10-09T12:19:23.345Z,21.53
2022-10-09T12:21:59.625Z,21.98
2022-10-09T12:24:30.460Z,23.02
2022-10-09T12:27:03.138Z,23.25
2022-10-09T12:29:34.731Z,23.31
2022-10-09T12:32:07.528Z,23.14
2022-10-09T12:34:38.941Z,22.98
2022-10-09T12:37:17.450Z,22.64
2022-10-09T12:39:46.366Z,22.20
2022-10-09T12:42:20.016Z,22.01
2022-10-09T12:44:49.607Z,21.88
2022-10-09T12:47:21.811Z,21.66
2022-10-09T12:49:57.921Z,21.65
2022-10-09T12:52:27.935Z,21.57
2022-10-09T12:54:55.952Z,21.43
2022-10-09T12:57:27.726Z,21.24
2022-10-09T12:59:56.542Z,21.09
2022-10-09T13:02:24.434Z,20.95
2022-10-09T13:04:57.974Z,20.90
2022-10-09T13:07:29.731Z,20.72
2022-10-09T13:10:03.700Z,20.59
2022-10-09T13:12:32.433Z,20.51
2022-10-09T13:15:01.681Z,20.47
2022-10-09T13:20:21.523Z,20.29
2022-10-09T13:22:56.545Z,20.20
2022-10-09T13:25:24.777Z,20.07
2022-10-09T13:27:52.625Z,20.11
2022-10-09T13:30:22.303Z,20.01
2022-10-09T13:32:50.087Z,19.92
2022-10-09T13:35:18.152Z,19.92
2022-10-09T13:37:45.826Z,19.93
2022-10-09T13:40:20.417Z,19.90
2022-10-09T13:42:53.808Z,19.85
2022-10-09T13:45:22.194Z,19.83
2022-10-09T13:47:50.154Z,19.79
2022-10-09T13:50:19.677Z,19.78
2022-10-09T13:52:47.352Z,19.80
2022-10-09T13:55:17.131Z,19.70
2022-10-09T13:57:44.836Z,19.67
2022-10-09T14:00:13.575Z,19.70
2022-10-09T14:02:41.237Z,19.68
2022-10-09T14:05:09.052Z,19.61
2022-10-09T14:07:36.683Z,19.64
2022-10-09T14:10:04.849Z,19.56
2022-10-09T14:12:33.864Z,19.52
2022-10-09T14:15:01.523Z,19.51
2022-10-09T14:17:29.213Z,19.58
2022-10-09T14:19:57.018Z,19.62
2022-10-09T14:22:24.605Z,19.68
2022-10-09T14:24:52.243Z,19.66
2022-10-09T14:27:19.862Z,19.64
2022-10-09T14:29:49.314Z,19.75
2022-10-09T14:32:18.750Z,19.71
2022-10-09T14:34:46.530Z,19.61
2022-10-09T14:37:29.889Z,19.57
2022-10-09T14:40:02.129Z,19.56
2022-10-09T14:42:29.836Z,19.55
2022-10-09T14:44:58.861Z,19.49
2022-10-09T14:47:26.570Z,19.49
2022-10-09T14:49:54.233Z,19.39
2022-10-09T14:52:21.865Z,19.32
2022-10-09T14:54:49.524Z,19.26
2022-10-09T14:57:17.947Z,19.19
2022-10-09T14:59:45.596Z,19.14
2022-10-09T15:02:15.949Z,19.07
2022-10-09T15:04:43.928Z,18.99
2022-10-09T15:07:11.613Z,18.94
2022-10-09T15:09:39.243Z,18.88
2022-10-09T15:12:07.033Z,18.85
2022-10-09T15:14:34.709Z,18.79
2022-10-09T15:17:02.880Z,18.78
2022-10-09T15:19:32.019Z,18.73
2022-10-09T15:21:59.755Z,18.69
2022-10-09T15:24:27.880Z,18.66
2022-10-09T15:26:55.545Z,18.59
2022-10-09T15:29:23.372Z,18.55
2022-10-09T15:31:51.903Z,18.51
2022-10-09T15:34:20.944Z,18.43
2022-10-09T15:36:50.949Z,18.39
2022-10-09T15:39:18.711Z,18.37
2022-10-09T15:41:47.696Z,18.37
2022-10-09T15:44:17.469Z,18.32
2022-10-09T15:46:46.304Z,18.27
2022-10-09T15:49:14.041Z,18.24
2022-10-09T15:51:41.748Z,18.24
2022-10-09T15:54:12.993Z,18.18
2022-10-09T15:56:41.393Z,18.12
2022-10-09T15:59:11.830Z,18.06
2022-10-09T16:01:39.571Z,18.02
2022-10-09T16:04:07.295Z,17.96
2022-10-09T16:06:35.078Z,17.91
2022-10-09T16:09:04.060Z,17.85
2022-10-09T16:11:34.539Z,17.82
2022-10-09T16:14:02.303Z,17.76
2022-10-09T16:16:29.983Z,17.73
2022-10-09T16:18:57.755Z,17.68
2022-10-09T16:21:27.940Z,17.64
2022-10-09T16:23:59.141Z,17.60
2022-10-09T16:26:29.200Z,17.58
2022-10-09T16:28:59.999Z,17.53
2022-10-09T16:31:30.140Z,17.49
2022-10-09T16:33:58.112Z,17.44
2022-10-09T16:36:25.788Z,17.39
2022-10-09T16:38:53.467Z,17.35
2022-10-09T16:41:22.718Z,17.31
2022-10-09T16:43:52.194Z,17.26
2022-10-09T16:46:23.528Z,17.23
2022-10-09T16:48:52.523Z,17.19
2022-10-09T16:51:22.815Z,17.11
2022-10-09T16:53:51.278Z,17.06
2022-10-09T16:56:20.905Z,17.02
2022-10-09T16:58:48.541Z,16.97
2022-10-09T17:01:17.427Z,16.93
2022-10-09T17:03:46.851Z,16.89
2022-10-09T17:06:19.413Z,16.86
2022-10-09T17:08:47.386Z,16.82
2022-10-09T17:11:17.261Z,16.78
2022-10-09T17:13:45.942Z,16.76
2022-10-09T17:16:18.453Z,16.72
2022-10-09T17:18:47.983Z,16.68
2022-10-09T17:21:17.198Z,16.67
2022-10-09T17:23:45.437Z,16.64
2022-10-09T17:26:15.177Z,16.64
2022-10-09T17:28:43.313Z,16.60
2022-10-09T17:31:14.460Z,16.57
2022-10-09T17:33:46.274Z,16.55
2022-10-09T17:36:17.456Z,16.55
2022-10-09T17:38:45.231Z,16.54
2022-10-09T17:41:14.796Z,16.52
2022-10-09T17:43:42.489Z,16.51
2022-10-09T17:46:10.109Z,16.48
2022-10-09T17:48:44.005Z,16.45
2022-10-09T17:51:17.032Z,16.43
2022-10-09T17:53:45.137Z,16.42
2022-10-09T17:56:13.454Z,16.42
2022-10-09T17:58:42.105Z,16.38
2022-10-09T18:01:10.652Z,16.37
2022-10-09T18:03:38.628Z,16.33
2022-10-09T18:06:08.021Z,16.26
2022-10-09T18:08:37.657Z,16.22
2022-10-09T18:11:08.663Z,16.11
2022-10-09T18:13:37.809Z,16.08
2022-10-09T18:16:07.157Z,16.08
2022-10-09T18:18:35.371Z,16.04
2022-10-09T18:21:05.097Z,16.02
2022-10-09T18:23:32.967Z,15.99
2022-10-09T18:26:07.203Z,15.97
2022-10-09T18:28:35.193Z,15.95
2022-10-09T18:31:06.105Z,15.91
2022-10-09T18:33:33.964Z,15.91
2022-10-09T18:36:07.085Z,15.93
2022-10-09T18:38:35.074Z,15.91
2022-10-09T18:41:04.358Z,15.87
2022-10-09T18:43:31.945Z,15.82
2022-10-09T18:46:00.725Z,15.78
2022-10-09T18:48:30.485Z,15.74
2022-10-09T18:50:58.543Z,15.72
2022-10-09T18:53:26.311Z,15.69
2022-10-09T18:55:54.252Z,15.63
2022-10-09T18:58:23.854Z,15.63
2022-10-09T19:00:51.578Z,15.66
2022-10-09T19:03:19.224Z,15.59
2022-10-09T19:05:46.887Z,15.55
2022-10-09T19:08:14.515Z,15.48
2022-10-09T19:10:42.222Z,15.49
2022-10-09T19:13:09.765Z,15.47
2022-10-09T19:15:38.794Z,15.41
2022-10-09T19:18:06.902Z,15.38
2022-10-09T19:20:34.551Z,15.36
2022-10-09T19:23:02.204Z,15.34
2022-10-09T19:25:29.800Z,15.62
2022-10-09T19:27:57.462Z,15.53
2022-10-09T19:30:25.094Z,15.49
2022-10-09T19:32:54.049Z,15.43
2022-10-09T19:35:21.644Z,15.37
2022-10-09T19:37:49.503Z,15.33
2022-10-09T19:40:17.460Z,15.34
2022-10-09T19:42:45.038Z,15.30
2022-10-09T19:45:12.718Z,15.22
2022-10-09T19:47:40.354Z,15.19
2022-10-09T19:50:10.027Z,15.19
2022-10-09T19:52:37.687Z,15.16
2022-10-09T19:55:05.964Z,15.11
2022-10-09T19:57:33.674Z,15.18
2022-10-09T20:00:01.272Z,15.14
2022-10-09T20:02:28.912Z,15.04
2022-10-09T20:04:56.555Z,14.96
2022-10-09T20:07:25.631Z,14.98
2022-10-09T20:09:53.276Z,15.01
2022-10-09T20:12:21.042Z,15.07
2022-10-09T20:14:48.687Z,15.03
2022-10-09T20:17:17.135Z,14.95
2022-10-09T20:19:45.876Z,14.86
2022-10-09T20:22:13.681Z,14.82
2022-10-09T20:24:42.728Z,14.78
2022-10-09T20:27:10.322Z,14.73
2022-10-09T20:29:38.149Z,14.71
2022-10-09T20:32:05.822Z,14.66
2022-10-09T20:34:33.440Z,14.62
2022-10-09T20:37:01.199Z,14.60
2022-10-09T20:39:28.788Z,14.56
2022-10-09T20:41:58.400Z,14.52
2022-10-09T20:44:25.950Z,14.41
2022-10-09T20:46:56.638Z,14.35
2022-10-09T20:49:24.373Z,14.35
2022-10-09T20:51:52.791Z,14.31
2022-10-09T20:54:21.979Z,14.34
2022-10-09T20:56:50.439Z,14.34
2022-10-09T20:59:19.797Z,14.25
2022-10-09T21:01:47.605Z,14.19
2022-10-09T21:04:15.263Z,14.18
2022-10-09T21:06:43.002Z,14.14
2022-10-09T21:09:10.790Z,14.09
2022-10-09T21:11:40.218Z,14.06
2022-10-09T21:14:08.093Z,14.00
2022-10-09T21:16:37.268Z,14.01
2022-10-09T21:19:06.154Z,13.97
2022-10-09T21:21:34.859Z,13.97
2022-10-09T21:24:03.319Z,13.99
2022-10-09T21:26:35.477Z,13.91
2022-10-09T21:29:04.048Z,13.97
2022-10-09T21:31:33.569Z,13.91
2022-10-09T21:34:03.010Z,13.82
2022-10-09T21:36:51.212Z,13.82
2022-10-09T21:39:27.431Z,13.86
2022-10-09T21:41:56.018Z,13.88
2022-10-09T21:44:23.655Z,13.79
2022-10-09T21:46:51.319Z,13.66
2022-10-09T21:49:22.547Z,13.63
2022-10-09T21:51:50.384Z,13.57
2022-10-09T21:54:18.498Z,13.56
2022-10-09T21:56:46.127Z,13.59
2022-10-09T21:59:14.144Z,13.67
2022-10-09T22:01:41.750Z,13.61
2022-10-09T22:04:09.386Z,13.52
2022-10-09T22:06:38.330Z,13.45
2022-10-09T22:09:05.917Z,13.43
2022-10-09T22:11:33.500Z,13.39
2022-10-09T22:14:01.090Z,13.35
2022-10-09T22:16:28.688Z,13.36
2022-10-09T22:18:56.278Z,13.36
2022-10-09T22:21:23.949Z,13.28
2022-10-09T22:23:52.958Z,13.22
2022-10-09T22:26:22.750Z,13.17
2022-10-09T22:28:50.643Z,13.15
2022-10-09T22:31:20.557Z,13.09
2022-10-09T22:33:50.876Z,13.00
2022-10-09T22:36:20.056Z,13.02
2022-10-09T22:38:48.044Z,13.00
2022-10-09T22:41:18.370Z,12.96
2022-10-09T22:43:48.629Z,13.00
2022-10-09T22:46:19.260Z,13.04
2022-10-09T22:48:46.910Z,13.03
2022-10-09T22:51:16.837Z,12.96
2022-10-09T22:53:47.229Z,12.89
2022-10-09T22:56:18.887Z,12.91
2022-10-09T22:58:47.623Z,12.88
2022-10-09T23:01:17.434Z,12.93
2022-10-09T23:03:45.098Z,12.95
2022-10-09T23:06:15.603Z,12.95
2022-10-09T23:08:45.202Z,12.94
2022-10-09T23:11:13.883Z,12.85
2022-10-09T23:13:42.941Z,12.82
2022-10-09T23:16:13.091Z,12.80
2022-10-09T23:18:42.079Z,12.77
2022-10-09T23:21:12.654Z,12.76
2022-10-09T23:23:40.359Z,12.78
2022-10-09T23:26:10.003Z,12.72
2022-10-09T23:28:37.891Z,12.69
2022-10-09T23:31:08.873Z,12.66
2022-10-09T23:33:38.438Z,12.59
2022-10-09T23:36:07.734Z,12.63
2022-10-09T23:38:35.828Z,12.59
2022-10-09T23:41:05.605Z,12.56
2022-10-09T23:43:34.795Z,12.58
2022-10-09T23:46:04.499Z,12.54
2022-10-09T23:48:34.063Z,12.48
2022-10-09T23:51:01.707Z,12.52
2022-10-09T23:53:29.645Z,12.54
2022-10-09T23:55:57.208Z,12.50
2022-10-09T23:58:25.293Z,12.51
